sensor_id;sensor_type;location;lat;lon;timestamp;P1;durP1;ratioP1;P2;durP2;ratioP2
58874;SDS011;44652;49.040;12.126;2022-10-29T10:37:50;19.85;;;10.93;;
58874;SDS011;44652;49.040;12.126;2022-10-29T10:40:21;19.20;;;10.52;;
58874;SDS011;44652;49.040;12.126;2022-10-29T10:55:02;14.60;;;9.82;;
58874;SDS011;44652;49.040;12.126;2022-10-29T10:57:36;13.95;;;9.40;;
58874;SDS011;44652;49.040;12.126;2022-10-29T11:05:36;15.38;;;9.38;;
58874;SDS011;44652;49.040;12.126;2022-10-29T11:08:31;13.50;;;9.00;;
58874;SDS011;44652;49.040;12.126;2022-10-29T11:19:40;14.30;;;9.10;;
58874;SDS011;44652;49.040;12.126;2022-10-29T11:32:11;18.58;;;8.98;;
58874;SDS011;44652;49.040;12.126;2022-10-29T11:44:50;15.10;;;8.35;;
58874;SDS011;44652;49.040;12.126;2022-10-29T13:03:05;12.60;;;6.72;;
58874;SDS011;44652;49.040;12.126;2022-10-29T13:05:37;14.05;;;7.55;;
58874;SDS011;44652;49.040;12.126;2022-10-29T13:08:07;13.35;;;6.97;;
58874;SDS011;44652;49.040;12.126;2022-10-29T13:10:48;15.55;;;7.00;;
58874;SDS011;44652;49.040;12.126;2022-10-29T13:48:39;15.38;;;6.68;;
58874;SDS011;44652;49.040;12.126;2022-10-29T13:55:34;13.98;;;7.82;;
58874;SDS011;44652;49.040;12.126;2022-10-29T14:31:17;13.90;;;6.80;;
58874;SDS011;44652;49.040;12.126;2022-10-29T14:38:05;17.13;;;7.25;;
58874;SDS011;44652;49.040;12.126;2022-10-29T14:40:36;13.25;;;7.38;;
58874;SDS011;44652;49.040;12.126;2022-10-29T15:46:42;15.93;;;7.75;;
58874;SDS011;44652;49.040;12.126;2022-10-29T15:49:13;14.75;;;7.22;;
58874;SDS011;44652;49.040;12.126;2022-10-29T15:51:40;14.87;;;6.90;;
58874;SDS011;44652;49.040;12.126;2022-10-29T15:54:07;14.77;;;7.03;;
58874;SDS011;44652;49.040;12.126;2022-10-29T15:56:39;13.23;;;7.18;;
58874;SDS011;44652;49.040;12.126;2022-10-29T15:59:07;14.15;;;7.60;;
58874;SDS011;44652;49.040;12.126;2022-10-29T16:01:37;11.60;;;7.05;;
58874;SDS011;44652;49.040;12.126;2022-10-29T16:04:04;16.30;;;6.95;;
58874;SDS011;44652;49.040;12.126;2022-10-29T16:06:31;16.52;;;7.55;;
58874;SDS011;44652;49.040;12.126;2022-10-29T16:08:57;12.52;;;6.40;;
58874;SDS011;44652;49.040;12.126;2022-10-29T16:11:25;11.93;;;6.85;;
58874;SDS011;44652;49.040;12.126;2022-10-29T16:13:52;13.63;;;8.32;;
58874;SDS011;44652;49.040;12.126;2022-10-29T16:16:22;13.65;;;7.72;;
58874;SDS011;44652;49.040;12.126;2022-10-29T16:18:50;20.63;;;7.93;;
58874;SDS011;44652;49.040;12.126;2022-10-29T16:21:19;17.08;;;7.80;;
58874;SDS011;44652;49.040;12.126;2022-10-29T16:23:47;16.92;;;7.70;;
58874;SDS011;44652;49.040;12.126;2022-10-29T16:26:15;20.35;;;8.73;;
58874;SDS011;44652;49.040;12.126;2022-10-29T16:28:43;20.60;;;10.65;;
58874;SDS011;44652;49.040;12.126;2022-10-29T16:31:20;19.98;;;11.65;;
58874;SDS011;44652;49.040;12.126;2022-10-29T16:33:51;20.73;;;9.02;;
58874;SDS011;44652;49.040;12.126;2022-10-29T16:36:20;22.75;;;8.60;;
58874;SDS011;44652;49.040;12.126;2022-10-29T16:38:46;20.83;;;8.52;;
58874;SDS011;44652;49.040;12.126;2022-10-29T16:41:13;20.63;;;8.02;;
58874;SDS011;44652;49.040;12.126;2022-10-29T16:43:43;27.40;;;10.50;;
58874;SDS011;44652;49.040;12.126;2022-10-29T16:46:10;19.98;;;8.60;;
58874;SDS011;44652;49.040;12.126;2022-10-29T16:48:38;16.45;;;7.70;;
58874;SDS011;44652;49.040;12.126;2022-10-29T16:51:05;17.23;;;8.30;;
58874;SDS011;44652;49.040;12.126;2022-10-29T16:53:33;13.88;;;8.25;;
58874;SDS011;44652;49.040;12.126;2022-10-29T16:56:00;16.55;;;8.55;;
58874;SDS011;44652;49.040;12.126;2022-10-29T16:58:27;20.15;;;8.57;;
58874;SDS011;44652;49.040;12.126;2022-10-29T17:01:06;16.30;;;8.10;;
58874;SDS011;44652;49.040;12.126;2022-10-29T17:03:35;16.73;;;7.82;;
58874;SDS011;44652;49.040;12.126;2022-10-29T17:06:05;16.60;;;7.57;;
58874;SDS011;44652;49.040;12.126;2022-10-29T17:08:33;17.00;;;8.93;;
58874;SDS011;44652;49.040;12.126;2022-10-29T17:11:02;17.00;;;8.57;;
58874;SDS011;44652;49.040;12.126;2022-10-29T17:13:32;15.68;;;8.77;;
58874;SDS011;44652;49.040;12.126;2022-10-29T17:15:59;16.55;;;8.43;;
58874;SDS011;44652;49.040;12.126;2022-10-29T17:18:25;18.42;;;7.85;;
58874;SDS011;44652;49.040;12.126;2022-10-29T17:20:53;13.95;;;7.05;;
58874;SDS011;44652;49.040;12.126;2022-10-29T17:23:20;17.10;;;8.02;;
58874;SDS011;44652;49.040;12.126;2022-10-29T17:25:49;13.65;;;7.43;;
58874;SDS011;44652;49.040;12.126;2022-10-29T17:28:16;15.65;;;7.90;;
58874;SDS011;44652;49.040;12.126;2022-10-29T17:30:43;14.25;;;7.30;;
58874;SDS011;44652;49.040;12.126;2022-10-29T17:33:10;15.35;;;7.90;;
58874;SDS011;44652;49.040;12.126;2022-10-29T17:35:38;11.90;;;7.43;;
58874;SDS011;44652;49.040;12.126;2022-10-29T17:38:05;17.83;;;7.70;;
58874;SDS011;44652;49.040;12.126;2022-10-29T17:40:31;18.83;;;8.50;;
58874;SDS011;44652;49.040;12.126;2022-10-29T17:42:58;14.82;;;7.10;;
58874;SDS011;44652;49.040;12.126;2022-10-29T17:45:25;12.52;;;6.82;;
58874;SDS011;44652;49.040;12.126;2022-10-29T17:47:55;22.23;;;7.93;;
58874;SDS011;44652;49.040;12.126;2022-10-29T17:50:24;16.42;;;7.53;;
58874;SDS011;44652;49.040;12.126;2022-10-29T17:52:51;16.30;;;7.83;;
58874;SDS011;44652;49.040;12.126;2022-10-29T17:55:19;17.10;;;8.05;;
58874;SDS011;44652;49.040;12.126;2022-10-29T17:57:45;14.20;;;7.35;;
58874;SDS011;44652;49.040;12.126;2022-10-29T18:00:12;14.40;;;7.68;;
58874;SDS011;44652;49.040;12.126;2022-10-29T18:02:39;16.33;;;7.37;;
58874;SDS011;44652;49.040;12.126;2022-10-29T18:05:06;14.82;;;7.65;;
58874;SDS011;44652;49.040;12.126;2022-10-29T18:07:33;13.30;;;8.00;;
58874;SDS011;44652;49.040;12.126;2022-10-29T18:10:00;15.82;;;8.10;;
58874;SDS011;44652;49.040;12.126;2022-10-29T18:12:26;19.73;;;8.30;;
58874;SDS011;44652;49.040;12.126;2022-10-29T18:14:53;16.40;;;7.80;;
58874;SDS011;44652;49.040;12.126;2022-10-29T18:17:20;18.95;;;8.30;;
58874;SDS011;44652;49.040;12.126;2022-10-29T18:19:46;16.88;;;8.00;;
58874;SDS011;44652;49.040;12.126;2022-10-29T18:22:13;17.80;;;8.85;;
58874;SDS011;44652;49.040;12.126;2022-10-29T18:24:39;19.88;;;8.50;;
58874;SDS011;44652;49.040;12.126;2022-10-29T18:27:06;18.30;;;8.70;;
58874;SDS011;44652;49.040;12.126;2022-10-29T18:29:33;19.58;;;8.40;;
58874;SDS011;44652;49.040;12.126;2022-10-29T18:31:59;14.43;;;7.90;;
58874;SDS011;44652;49.040;12.126;2022-10-29T18:34:26;15.38;;;8.13;;
58874;SDS011;44652;49.040;12.126;2022-10-29T18:36:53;14.25;;;7.32;;
58874;SDS011;44652;49.040;12.126;2022-10-29T18:39:19;17.30;;;8.43;;
58874;SDS011;44652;49.040;12.126;2022-10-29T18:41:46;16.00;;;8.25;;
58874;SDS011;44652;49.040;12.126;2022-10-29T18:44:12;18.42;;;8.57;;
58874;SDS011;44652;49.040;12.126;2022-10-29T18:46:39;13.75;;;8.45;;
58874;SDS011;44652;49.040;12.126;2022-10-29T18:49:08;19.33;;;8.82;;
58874;SDS011;44652;49.040;12.126;2022-10-29T18:51:35;17.60;;;8.65;;
58874;SDS011;44652;49.040;12.126;2022-10-29T18:54:02;14.73;;;8.77;;
58874;SDS011;44652;49.040;12.126;2022-10-29T18:56:29;15.82;;;9.10;;
58874;SDS011;44652;49.040;12.126;2022-10-29T18:58:56;13.23;;;8.07;;
58874;SDS011;44652;49.040;12.126;2022-10-29T19:01:28;14.57;;;8.35;;
58874;SDS011;44652;49.040;12.126;2022-10-29T19:04:01;17.23;;;8.50;;
58874;SDS011;44652;49.040;12.126;2022-10-29T19:06:30;14.63;;;8.60;;
58874;SDS011;44652;49.040;12.126;2022-10-29T19:08:59;12.98;;;8.05;;
58874;SDS011;44652;49.040;12.126;2022-10-29T19:11:28;13.68;;;7.70;;
58874;SDS011;44652;49.040;12.126;2022-10-29T19:13:56;12.75;;;7.38;;
58874;SDS011;44652;49.040;12.126;2022-10-29T19:16:24;12.18;;;8.15;;
58874;SDS011;44652;49.040;12.126;2022-10-29T19:18:55;20.73;;;9.27;;
58874;SDS011;44652;49.040;12.126;2022-10-29T19:21:24;16.63;;;8.70;;
58874;SDS011;44652;49.040;12.126;2022-10-29T19:23:54;23.85;;;9.20;;
58874;SDS011;44652;49.040;12.126;2022-10-29T19:26:23;17.95;;;9.73;;
58874;SDS011;44652;49.040;12.126;2022-10-29T19:28:50;21.98;;;9.70;;
58874;SDS011;44652;49.040;12.126;2022-10-29T19:31:18;14.70;;;10.30;;
58874;SDS011;44652;49.040;12.126;2022-10-29T19:33:48;16.38;;;9.02;;
58874;SDS011;44652;49.040;12.126;2022-10-29T19:36:17;16.25;;;9.13;;
58874;SDS011;44652;49.040;12.126;2022-10-29T19:38:45;16.58;;;9.02;;
58874;SDS011;44652;49.040;12.126;2022-10-29T19:41:12;15.57;;;8.95;;
58874;SDS011;44652;49.040;12.126;2022-10-29T19:43:40;16.17;;;9.43;;
58874;SDS011;44652;49.040;12.126;2022-10-29T19:46:08;15.85;;;8.60;;
58874;SDS011;44652;49.040;12.126;2022-10-29T19:48:37;17.30;;;8.93;;
58874;SDS011;44652;49.040;12.126;2022-10-29T19:51:06;18.60;;;9.70;;
58874;SDS011;44652;49.040;12.126;2022-10-29T19:53:35;19.85;;;9.20;;
58874;SDS011;44652;49.040;12.126;2022-10-29T19:56:03;18.02;;;9.52;;
58874;SDS011;44652;49.040;12.126;2022-10-29T19:58:42;16.60;;;9.43;;
58874;SDS011;44652;49.040;12.126;2022-10-29T20:01:11;17.77;;;10.40;;
58874;SDS011;44652;49.040;12.126;2022-10-29T20:03:41;16.98;;;9.40;;
58874;SDS011;44652;49.040;12.126;2022-10-29T20:06:09;15.50;;;9.38;;
58874;SDS011;44652;49.040;12.126;2022-10-29T20:08:35;17.75;;;10.40;;
58874;SDS011;44652;49.040;12.126;2022-10-29T20:11:03;15.80;;;9.55;;
58874;SDS011;44652;49.040;12.126;2022-10-29T20:13:33;14.57;;;9.18;;
58874;SDS011;44652;49.040;12.126;2022-10-29T20:16:05;20.02;;;9.95;;
58874;SDS011;44652;49.040;12.126;2022-10-29T20:18:36;16.33;;;9.20;;
58874;SDS011;44652;49.040;12.126;2022-10-29T20:21:06;17.27;;;10.05;;
58874;SDS011;44652;49.040;12.126;2022-10-29T20:23:33;20.30;;;10.82;;
58874;SDS011;44652;49.040;12.126;2022-10-29T20:26:00;18.02;;;9.43;;
58874;SDS011;44652;49.040;12.126;2022-10-29T20:28:27;15.10;;;8.63;;
58874;SDS011;44652;49.040;12.126;2022-10-29T20:36:13;16.50;;;10.30;;
58874;SDS011;44652;49.040;12.126;2022-10-29T20:38:40;15.18;;;9.52;;
58874;SDS011;44652;49.040;12.126;2022-10-29T20:41:07;14.73;;;9.43;;
58874;SDS011;44652;49.040;12.126;2022-10-29T20:43:34;20.58;;;10.00;;
58874;SDS011;44652;49.040;12.126;2022-10-29T20:46:01;15.45;;;10.40;;
58874;SDS011;44652;49.040;12.126;2022-10-29T20:48:28;23.20;;;15.20;;
58874;SDS011;44652;49.040;12.126;2022-10-29T20:50:55;39.92;;;24.67;;
58874;SDS011;44652;49.040;12.126;2022-10-29T20:53:23;29.25;;;19.73;;
58874;SDS011;44652;49.040;12.126;2022-10-29T20:55:50;24.15;;;16.42;;
58874;SDS011;44652;49.040;12.126;2022-10-29T20:58:17;22.15;;;13.77;;
58874;SDS011;44652;49.040;12.126;2022-10-29T21:03:13;20.57;;;11.63;;
58874;SDS011;44652;49.040;12.126;2022-10-29T21:08:08;21.80;;;12.07;;
58874;SDS011;44652;49.040;12.126;2022-10-29T21:10:35;16.98;;;11.15;;
58874;SDS011;44652;49.040;12.126;2022-10-29T21:13:02;21.58;;;11.10;;
58874;SDS011;44652;49.040;12.126;2022-10-29T21:15:29;19.48;;;9.50;;
58874;SDS011;44652;49.040;12.126;2022-10-29T21:17:59;20.67;;;10.23;;
58874;SDS011;44652;49.040;12.126;2022-10-29T21:20:25;18.98;;;9.82;;
58874;SDS011;44652;49.040;12.126;2022-10-29T21:22:52;19.50;;;9.27;;
58874;SDS011;44652;49.040;12.126;2022-10-29T21:25:19;16.13;;;8.93;;
58874;SDS011;44652;49.040;12.126;2022-10-29T21:27:46;15.75;;;8.80;;
58874;SDS011;44652;49.040;12.126;2022-10-29T21:30:12;16.63;;;8.43;;
58874;SDS011;44652;49.040;12.126;2022-10-29T21:32:39;14.20;;;8.05;;
58874;SDS011;44652;49.040;12.126;2022-10-29T21:35:06;14.73;;;8.35;;
58874;SDS011;44652;49.040;12.126;2022-10-29T21:37:33;17.85;;;8.48;;
58874;SDS011;44652;49.040;12.126;2022-10-29T21:39:59;16.77;;;8.88;;
58874;SDS011;44652;49.040;12.126;2022-10-29T21:42:31;15.30;;;8.57;;
58874;SDS011;44652;49.040;12.126;2022-10-29T21:44:58;19.33;;;8.35;;
58874;SDS011;44652;49.040;12.126;2022-10-29T21:47:24;13.38;;;8.18;;
58874;SDS011;44652;49.040;12.126;2022-10-29T21:49:51;12.90;;;7.85;;
58874;SDS011;44652;49.040;12.126;2022-10-29T21:52:18;17.33;;;7.93;;
58874;SDS011;44652;49.040;12.126;2022-10-29T21:54:44;15.45;;;8.85;;
58874;SDS011;44652;49.040;12.126;2022-10-29T21:57:11;21.33;;;9.50;;
58874;SDS011;44652;49.040;12.126;2022-10-29T21:59:38;17.55;;;8.68;;
58874;SDS011;44652;49.040;12.126;2022-10-29T22:02:04;13.50;;;8.30;;
58874;SDS011;44652;49.040;12.126;2022-10-29T22:04:31;13.95;;;7.47;;
58874;SDS011;44652;49.040;12.126;2022-10-29T22:06:58;18.60;;;8.90;;
58874;SDS011;44652;49.040;12.126;2022-10-29T22:09:25;14.38;;;9.45;;
58874;SDS011;44652;49.040;12.126;2022-10-29T22:11:51;16.17;;;9.68;;
58874;SDS011;44652;49.040;12.126;2022-10-29T22:14:18;18.92;;;9.60;;
58874;SDS011;44652;49.040;12.126;2022-10-29T22:16:45;16.55;;;9.82;;
58874;SDS011;44652;49.040;12.126;2022-10-29T22:19:11;15.57;;;9.48;;
58874;SDS011;44652;49.040;12.126;2022-10-29T22:21:38;16.35;;;9.05;;
58874;SDS011;44652;49.040;12.126;2022-10-29T22:24:06;16.23;;;11.20;;
58874;SDS011;44652;49.040;12.126;2022-10-29T22:26:35;15.50;;;10.07;;
58874;SDS011;44652;49.040;12.126;2022-10-29T22:29:02;18.83;;;11.02;;
58874;SDS011;44652;49.040;12.126;2022-10-29T22:31:29;18.83;;;11.85;;
58874;SDS011;44652;49.040;12.126;2022-10-29T22:33:55;22.10;;;11.40;;
58874;SDS011;44652;49.040;12.126;2022-10-29T22:36:23;21.85;;;12.18;;
58874;SDS011;44652;49.040;12.126;2022-10-29T22:38:52;17.77;;;11.52;;
58874;SDS011;44652;49.040;12.126;2022-10-29T22:41:19;16.45;;;10.35;;
58874;SDS011;44652;49.040;12.126;2022-10-29T22:43:46;15.45;;;10.20;;
58874;SDS011;44652;49.040;12.126;2022-10-29T22:46:14;22.02;;;11.23;;
58874;SDS011;44652;49.040;12.126;2022-10-29T22:48:42;20.25;;;11.50;;
58874;SDS011;44652;49.040;12.126;2022-10-29T22:51:11;17.02;;;10.82;;
58874;SDS011;44652;49.040;12.126;2022-10-29T22:53:40;15.23;;;10.38;;
